createdAt,value
2018-03-28T00:01:45.942Z,36.55
2018-03-28T00:04:14.126Z,38.47
2018-03-28T00:06:43.009Z,38.85
2018-03-28T00:09:11.758Z,31.05
2018-03-28T00:11:39.977Z,42.53
2018-03-28T00:14:08.142Z,44.85
2018-03-28T00:16:36.861Z,38.38
2018-03-28T00:19:05.115Z,41.60
2018-03-28T00:21:34.108Z,38.00
2018-03-28T00:24:02.380Z,38.65
2018-03-28T00:26:30.656Z,37.63
2018-03-28T00:28:58.932Z,38.72
2018-03-28T00:31:27.099Z,36.53
2018-03-28T00:33:55.382Z,45.38
2018-03-28T00:36:23.657Z,39.65
2018-03-28T00:38:51.933Z,44.83
2018-03-28T00:41:20.209Z,45.50
2018-03-28T00:43:48.476Z,47.62
2018-03-28T00:46:17.671Z,48.17
2018-03-28T00:48:45.848Z,51.20
2018-03-28T00:51:26.820Z,49.78
2018-03-28T00:53:54.996Z,51.65
2018-03-28T00:56:23.280Z,48.65
2018-03-28T00:58:51.555Z,46.45
2018-03-28T01:01:20.445Z,46.92
2018-03-28T01:03:48.824Z,43.33
2018-03-28T01:06:23.506Z,52.00
2018-03-28T01:08:51.516Z,57.35
2018-03-28T01:11:19.585Z,43.78
2018-03-28T01:13:47.550Z,50.47
2018-03-28T01:16:15.515Z,45.95
2018-03-28T01:18:43.702Z,44.92
2018-03-28T01:21:11.659Z,51.50
2018-03-28T01:23:39.627Z,51.63
2018-03-28T01:26:07.711Z,41.40
2018-03-28T01:28:35.678Z,42.17
2018-03-28T01:31:03.854Z,45.67
2018-03-28T01:33:31.816Z,48.08
2018-03-28T01:35:59.986Z,49.35
2018-03-28T01:38:28.987Z,41.15
2018-03-28T01:40:57.154Z,51.10
2018-03-28T01:43:25.327Z,49.53
2018-03-28T01:45:53.290Z,47.08
2018-03-28T01:48:21.466Z,52.90
2018-03-28T01:50:50.567Z,50.17
2018-03-28T01:53:18.732Z,49.95
2018-03-28T01:55:47.020Z,50.75
2018-03-28T01:58:15.188Z,53.00
2018-03-28T02:00:43.356Z,60.10
2018-03-28T02:03:12.463Z,50.53
2018-03-28T02:05:40.625Z,59.60
2018-03-28T02:08:08.900Z,48.38
2018-03-28T02:10:37.074Z,53.80
2018-03-28T02:13:05.363Z,56.03
2018-03-28T02:15:33.638Z,49.03
2018-03-28T02:18:02.630Z,56.60
2018-03-28T02:20:30.799Z,58.25
2018-03-28T02:22:58.949Z,58.65
2018-03-28T02:25:27.867Z,55.08
2018-03-28T02:27:56.029Z,53.38
2018-03-28T02:30:24.205Z,65.62
2018-03-28T02:32:52.377Z,51.45
2018-03-28T02:35:20.555Z,51.45
2018-03-28T02:37:48.729Z,56.03
2018-03-28T02:40:16.795Z,49.00
2018-03-28T02:42:45.187Z,49.22
2018-03-28T02:45:14.281Z,60.95
2018-03-28T02:47:42.444Z,47.42
2018-03-28T02:50:10.497Z,51.65
2018-03-28T02:52:38.802Z,53.90
2018-03-28T02:55:06.970Z,52.25
2018-03-28T02:57:35.141Z,57.22
2018-03-28T03:00:03.425Z,56.33
2018-03-28T03:02:32.200Z,62.33
2018-03-28T03:05:00.376Z,61.95
2018-03-28T03:07:28.547Z,63.33
2018-03-28T03:09:56.835Z,71.18
2018-03-28T03:12:25.728Z,64.30
2018-03-28T03:14:54.398Z,59.08
2018-03-28T03:17:23.390Z,75.20
2018-03-28T03:19:51.462Z,61.83
2018-03-28T03:22:19.638Z,58.80
2018-03-28T03:24:47.923Z,59.28
2018-03-28T03:27:16.093Z,44.58
2018-03-28T03:29:44.264Z,54.25
2018-03-28T03:32:12.432Z,56.58
2018-03-28T03:34:40.606Z,50.40
2018-03-28T03:37:10.329Z,47.88
2018-03-28T03:39:38.493Z,59.83
2018-03-28T03:42:06.662Z,52.20
2018-03-28T03:44:35.552Z,49.70
2018-03-28T03:47:03.733Z,62.20
2018-03-28T03:49:33.540Z,46.08
2018-03-28T03:52:01.712Z,46.67
2018-03-28T03:54:30.884Z,53.47
2018-03-28T03:56:59.081Z,51.95
2018-03-28T03:59:27.260Z,41.63
2018-03-28T04:01:55.434Z,45.42
2018-03-28T04:04:23.717Z,55.20
2018-03-28T04:06:51.885Z,51.47
2018-03-28T04:09:20.052Z,54.55
2018-03-28T04:11:48.228Z,54.47
2018-03-28T04:14:16.402Z,52.08
2018-03-28T04:16:44.470Z,57.53
2018-03-28T04:19:12.643Z,50.63
2018-03-28T04:21:43.492Z,50.75
2018-03-28T04:24:12.165Z,47.22
2018-03-28T04:26:41.776Z,50.70
2018-03-28T04:29:10.064Z,57.22
2018-03-28T04:31:38.336Z,50.30
2018-03-28T04:34:06.497Z,48.95
2018-03-28T04:36:34.707Z,53.78
2018-03-28T04:39:03.667Z,56.75
2018-03-28T04:41:31.940Z,58.13
2018-03-28T04:44:00.226Z,47.15
2018-03-28T04:46:28.393Z,59.30
2018-03-28T04:48:56.566Z,48.87
2018-03-28T04:51:25.567Z,53.40
2018-03-28T04:53:53.732Z,47.25
2018-03-28T04:56:21.999Z,52.45
2018-03-28T04:58:50.189Z,49.35
2018-03-28T05:01:18.354Z,50.10
2018-03-28T05:03:46.639Z,61.53
2018-03-28T05:06:14.886Z,61.40
2018-03-28T05:08:42.979Z,57.35
2018-03-28T05:11:11.149Z,45.80
2018-03-28T05:13:39.325Z,53.78
2018-03-28T05:16:07.500Z,60.20
2018-03-28T05:18:35.784Z,66.93
2018-03-28T05:21:03.945Z,63.55
2018-03-28T05:23:32.120Z,66.28
2018-03-28T05:26:00.291Z,63.92
2018-03-28T05:28:28.580Z,56.22
2018-03-28T05:30:56.865Z,59.15
2018-03-28T05:33:25.842Z,58.30
2018-03-28T05:35:54.063Z,57.67
2018-03-28T05:38:22.809Z,59.88
2018-03-28T05:40:50.971Z,59.35
2018-03-28T05:43:19.149Z,76.72
2018-03-28T05:45:48.060Z,71.90
2018-03-28T05:48:17.141Z,71.95
2018-03-28T05:50:45.416Z,70.60
2018-03-28T05:53:13.580Z,67.43
2018-03-28T05:55:41.755Z,61.35
2018-03-28T05:58:09.823Z,72.07
2018-03-28T06:00:38.009Z,58.00
2018-03-28T06:03:06.786Z,60.12
2018-03-28T06:05:35.585Z,65.47
2018-03-28T06:08:05.283Z,60.67
2018-03-28T06:10:33.357Z,64.53
2018-03-28T06:13:01.593Z,58.83
2018-03-28T06:15:29.705Z,66.68
2018-03-28T06:17:57.874Z,61.85
2018-03-28T06:20:26.560Z,65.97
2018-03-28T06:22:54.848Z,64.60
2018-03-28T06:25:23.013Z,81.93
2018-03-28T06:27:51.182Z,76.53
2018-03-28T06:30:19.472Z,61.83
2018-03-28T06:32:48.349Z,73.12
2018-03-28T06:35:16.637Z,67.00
2018-03-28T06:37:44.805Z,78.47
2018-03-28T06:40:13.086Z,70.18
2018-03-28T06:42:41.248Z,75.90
2018-03-28T06:45:09.536Z,70.12
2018-03-28T06:47:37.699Z,74.70
2018-03-28T06:50:05.984Z,88.55
2018-03-28T06:52:34.151Z,79.53
2018-03-28T06:55:02.325Z,89.05
2018-03-28T06:57:30.611Z,99.97
2018-03-28T06:59:59.497Z,100.90
2018-03-28T07:02:27.663Z,103.38
2018-03-28T07:04:56.550Z,103.28
2018-03-28T07:07:24.838Z,105.10
2018-03-28T07:09:53.004Z,108.63
2018-03-28T07:12:21.793Z,100.05
2018-03-28T07:14:50.581Z,101.18
2018-03-28T07:17:18.753Z,109.18
2018-03-28T07:19:47.745Z,92.30
2018-03-28T07:22:15.917Z,99.93
2018-03-28T07:24:44.095Z,94.57
2018-03-28T07:27:13.095Z,86.00
2018-03-28T07:29:41.984Z,95.18
2018-03-28T07:32:10.144Z,100.15
2018-03-28T07:34:38.431Z,87.62
2018-03-28T07:37:06.595Z,88.07
2018-03-28T07:39:34.773Z,81.75
2018-03-28T07:42:02.941Z,87.90
2018-03-28T07:44:31.129Z,82.20
2018-03-28T07:46:59.264Z,84.60
2018-03-28T07:49:27.462Z,84.20
2018-03-28T07:51:55.636Z,91.03
2018-03-28T07:54:23.814Z,81.53
2018-03-28T07:56:52.609Z,92.62
2018-03-28T07:59:20.888Z,71.47
2018-03-28T08:01:49.262Z,92.88
2018-03-28T08:04:17.424Z,90.95
2018-03-28T08:06:45.606Z,82.97
2018-03-28T08:09:14.603Z,85.57
2018-03-28T08:11:43.597Z,76.28
2018-03-28T08:14:22.407Z,83.57
2018-03-28T08:16:50.701Z,86.12
2018-03-28T08:19:19.688Z,78.90
2018-03-28T08:21:47.850Z,94.73
2018-03-28T08:24:16.023Z,99.73
2018-03-28T08:26:44.200Z,91.67
2018-03-28T08:29:12.370Z,88.33
2018-03-28T08:31:40.658Z,89.57
2018-03-28T08:34:08.819Z,98.27
2018-03-28T08:36:37.107Z,87.63
2018-03-28T08:39:05.376Z,81.70
2018-03-28T08:41:33.550Z,91.57
2018-03-28T08:44:01.622Z,88.17
2018-03-28T08:46:29.801Z,93.47
2018-03-28T08:48:58.682Z,87.17
2018-03-28T08:51:26.853Z,90.97
2018-03-28T08:53:55.032Z,85.03
2018-03-28T08:56:23.869Z,80.30
2018-03-28T08:58:52.093Z,88.20
2018-03-28T09:01:20.377Z,85.07
2018-03-28T09:03:48.543Z,81.77
2018-03-28T09:06:16.725Z,76.43
2018-03-28T09:08:45.001Z,75.57
2018-03-28T09:11:13.162Z,78.63
2018-03-28T09:13:48.604Z,72.17
2018-03-28T09:16:29.748Z,76.60
2018-03-28T09:19:12.304Z,78.37
2018-03-28T09:21:41.095Z,76.30
2018-03-28T09:24:10.150Z,85.63
2018-03-28T09:26:38.870Z,80.87
2018-03-28T09:29:07.037Z,72.50
2018-03-28T09:31:52.771Z,73.70
2018-03-28T09:34:21.009Z,66.00
2018-03-28T09:36:49.989Z,75.37
2018-03-28T09:39:19.596Z,67.27
2018-03-28T09:41:47.593Z,72.93
2018-03-28T09:44:29.300Z,62.17
2018-03-28T09:47:17.030Z,56.10
2018-03-28T09:52:56.489Z,59.00
2018-03-28T09:55:24.490Z,55.40
2018-03-28T09:57:52.479Z,61.30
2018-03-28T10:00:25.985Z,57.07
2018-03-28T10:02:59.634Z,58.80
2018-03-28T10:05:33.059Z,55.87
2018-03-28T10:08:01.087Z,43.57
2018-03-28T10:10:29.790Z,37.67
2018-03-28T10:12:57.736Z,30.67
2018-03-28T10:15:26.495Z,33.10
2018-03-28T10:17:54.495Z,37.10
2018-03-28T10:20:22.538Z,32.90
2018-03-28T10:22:50.508Z,31.30
2018-03-28T10:25:18.532Z,26.10
2018-03-28T10:27:46.503Z,36.80
2018-03-28T10:30:14.453Z,32.83
2018-03-28T10:32:42.453Z,31.13
2018-03-28T10:35:10.454Z,28.50
2018-03-28T10:37:38.448Z,28.13
2018-03-28T10:40:07.259Z,31.90
2018-03-28T10:42:35.223Z,28.47
2018-03-28T10:45:03.259Z,33.60
2018-03-28T10:47:32.046Z,29.90
2018-03-28T10:49:59.989Z,32.80
2018-03-28T10:52:27.982Z,29.70
2018-03-28T10:54:56.052Z,30.33
2018-03-28T10:57:24.086Z,29.43
2018-03-28T10:59:52.105Z,36.13
2018-03-28T11:02:20.819Z,35.10
2018-03-28T11:04:48.771Z,30.60
2018-03-28T11:07:16.730Z,33.30
2018-03-28T11:09:45.492Z,32.27
2018-03-28T11:12:13.453Z,34.30
2018-03-28T11:14:41.401Z,29.40
2018-03-28T11:17:09.338Z,27.00
2018-03-28T11:19:37.358Z,32.40
2018-03-28T11:22:05.314Z,39.93
2018-03-28T11:24:33.298Z,32.67
2018-03-28T11:27:01.273Z,37.10
2018-03-28T11:29:29.286Z,33.83
2018-03-28T11:31:57.256Z,35.90
2018-03-28T11:34:25.218Z,32.97
2018-03-28T11:36:53.214Z,37.67
2018-03-28T11:39:21.263Z,32.10
2018-03-28T11:41:49.186Z,36.20
2018-03-28T11:44:17.187Z,34.33
2018-03-28T11:46:45.990Z,36.50
2018-03-28T11:49:13.937Z,37.17
2018-03-28T11:51:42.631Z,39.63
2018-03-28T11:54:11.386Z,32.00
2018-03-28T11:56:39.402Z,27.90
2018-03-28T11:59:07.386Z,29.90
2018-03-28T12:01:35.354Z,28.40
2018-03-28T12:04:03.342Z,34.00
2018-03-28T12:06:31.289Z,36.53
2018-03-28T12:08:59.229Z,31.87
2018-03-28T12:11:27.950Z,33.23
2018-03-28T12:13:55.939Z,31.13
2018-03-28T12:16:23.949Z,28.50
2018-03-28T12:18:52.624Z,31.63
2018-03-28T12:21:20.780Z,29.03
2018-03-28T12:23:48.845Z,32.80
2018-03-28T12:26:16.799Z,37.47
2018-03-28T12:28:44.810Z,30.27
2018-03-28T12:31:13.489Z,36.23
2018-03-28T12:33:41.479Z,37.10
2018-03-28T12:36:10.173Z,33.10
2018-03-28T12:38:38.112Z,40.57
2018-03-28T12:41:06.051Z,36.30
2018-03-28T12:43:34.024Z,32.87
2018-03-28T12:46:02.017Z,34.73
2018-03-28T12:51:27.894Z,34.83
2018-03-28T12:54:10.654Z,29.63
2018-03-28T12:56:39.436Z,32.60
2018-03-28T12:59:07.457Z,34.30
2018-03-28T13:01:35.442Z,37.03
2018-03-28T13:04:03.465Z,38.57
2018-03-28T13:06:31.408Z,34.03
2018-03-28T13:08:59.483Z,37.30
2018-03-28T13:11:27.434Z,34.50
2018-03-28T13:13:55.439Z,36.20
2018-03-28T13:16:23.381Z,32.90
2018-03-28T13:18:51.545Z,44.93
2018-03-28T13:21:19.577Z,40.97
2018-03-28T13:23:48.282Z,46.77
2018-03-28T13:26:16.218Z,37.30
2018-03-28T13:28:44.190Z,44.00
2018-03-28T13:31:12.977Z,45.97
2018-03-28T13:33:41.708Z,39.97
2018-03-28T13:36:09.694Z,36.67
2018-03-28T13:38:37.629Z,42.00
2018-03-28T13:41:05.656Z,45.13
2018-03-28T13:43:33.619Z,57.40
2018-03-28T13:46:01.617Z,39.90
2018-03-28T13:48:30.296Z,52.53
2018-03-28T13:50:58.986Z,85.10
2018-03-28T13:53:27.759Z,184.77
2018-03-28T13:55:55.710Z,53.00
2018-03-28T13:58:23.634Z,43.80
2018-03-28T14:00:51.679Z,54.87
2018-03-28T14:03:20.386Z,55.90
2018-03-28T14:05:48.442Z,44.37
2018-03-28T14:08:17.176Z,44.13
2018-03-28T14:10:45.193Z,40.07
2018-03-28T14:13:13.954Z,42.13
2018-03-28T14:15:41.885Z,52.33
2018-03-28T14:18:09.947Z,42.20
2018-03-28T14:20:37.950Z,42.57
2018-03-28T14:23:05.871Z,51.43
2018-03-28T14:25:33.810Z,42.37
2018-03-28T14:28:01.881Z,41.70
2018-03-28T14:30:29.859Z,42.17
2018-03-28T14:32:57.842Z,46.67
2018-03-28T14:35:26.599Z,48.40
2018-03-28T14:37:55.357Z,45.73
2018-03-28T14:40:23.274Z,44.10
2018-03-28T14:42:54.587Z,43.37
2018-03-28T14:45:20.031Z,45.63
2018-03-28T14:47:48.731Z,44.90
2018-03-28T14:50:16.707Z,44.40
2018-03-28T14:52:44.683Z,47.93
2018-03-28T14:55:12.691Z,47.23
2018-03-28T14:57:40.643Z,41.53
2018-03-28T15:00:08.670Z,39.63
2018-03-28T15:02:37.471Z,44.87
2018-03-28T15:05:05.553Z,45.87
2018-03-28T15:07:33.506Z,39.67
2018-03-28T15:10:01.455Z,42.00
2018-03-28T15:12:30.221Z,44.93
2018-03-28T15:14:58.232Z,37.10
2018-03-28T15:17:26.243Z,44.90
2018-03-28T15:19:54.256Z,44.83
2018-03-28T15:22:22.981Z,39.67
2018-03-28T15:24:51.010Z,37.20
2018-03-28T15:27:19.821Z,36.43
2018-03-28T15:29:47.759Z,43.77
2018-03-28T15:32:15.747Z,40.73
2018-03-28T15:34:44.480Z,32.57
2018-03-28T15:37:16.980Z,46.17
2018-03-28T15:39:44.928Z,35.40
2018-03-28T15:42:12.955Z,44.57
2018-03-28T15:44:40.951Z,38.13
2018-03-28T15:47:08.887Z,36.43
2018-03-28T15:49:37.728Z,33.30
2018-03-28T15:52:05.774Z,38.93
2018-03-28T15:54:33.905Z,33.70
2018-03-28T15:57:02.616Z,35.83
2018-03-28T15:59:30.570Z,35.07
2018-03-28T16:01:58.645Z,36.23
2018-03-28T16:04:27.531Z,37.40
2018-03-28T16:06:56.347Z,38.87
2018-03-28T16:09:24.498Z,38.83
2018-03-28T16:11:52.790Z,38.87
2018-03-28T16:14:20.896Z,42.50
2018-03-28T16:16:49.152Z,36.93
2018-03-28T16:19:17.485Z,45.20
2018-03-28T16:21:46.408Z,42.97
2018-03-28T16:24:14.622Z,40.80
2018-03-28T16:26:43.266Z,41.80
2018-03-28T16:29:11.460Z,39.20
2018-03-28T16:31:39.706Z,41.37
2018-03-28T16:34:08.009Z,41.07
2018-03-28T16:36:36.233Z,42.70
2018-03-28T16:39:05.398Z,39.63
2018-03-28T16:41:33.666Z,38.40
2018-03-28T16:44:01.939Z,35.40
2018-03-28T16:46:30.267Z,36.80
2018-03-28T16:48:59.398Z,36.43
2018-03-28T16:51:27.654Z,34.67
2018-03-28T16:53:55.984Z,45.23
2018-03-28T16:56:24.289Z,40.70
2018-03-28T16:58:53.432Z,38.43
2018-03-28T17:01:21.838Z,38.00
2018-03-28T17:03:50.128Z,35.20
2018-03-28T17:06:18.424Z,37.80
2018-03-28T17:08:47.507Z,38.17
2018-03-28T17:11:15.821Z,35.20
2018-03-28T17:13:44.061Z,34.87
2018-03-28T17:16:13.175Z,38.27
2018-03-28T17:18:41.427Z,35.00
2018-03-28T17:21:10.517Z,36.20
2018-03-28T17:23:38.807Z,33.73
2018-03-28T17:26:07.904Z,38.07
2018-03-28T17:28:36.924Z,28.57
2018-03-28T17:31:05.247Z,43.60
2018-03-28T17:33:33.505Z,39.20
2018-03-28T17:36:01.797Z,35.93
2018-03-28T17:38:30.165Z,13.50
2018-03-28T17:40:58.433Z,11.23
2018-03-28T17:43:26.673Z,7.30
2018-03-28T17:45:54.913Z,11.03
2018-03-28T17:48:23.205Z,9.80
2018-03-28T17:50:52.240Z,8.47
2018-03-28T17:53:20.521Z,11.43
2018-03-28T17:55:48.875Z,7.23
2018-03-28T17:58:17.208Z,11.57
2018-03-28T18:00:45.529Z,6.53
2018-03-28T18:03:13.876Z,8.30
2018-03-28T18:05:42.881Z,8.23
2018-03-28T18:08:11.881Z,7.83
2018-03-28T18:10:40.219Z,9.13
2018-03-28T18:13:10.530Z,11.73
2018-03-28T18:15:38.822Z,6.93
2018-03-28T18:18:07.159Z,9.47
2018-03-28T18:20:35.484Z,8.07
2018-03-28T18:23:03.821Z,5.93
2018-03-28T18:25:32.049Z,6.83
2018-03-28T18:28:01.070Z,11.17
2018-03-28T18:30:29.426Z,7.63
2018-03-28T18:32:58.492Z,5.43
2018-03-28T18:35:26.852Z,11.87
2018-03-28T18:37:55.224Z,8.80
2018-03-28T18:40:23.560Z,9.40
2018-03-28T18:42:52.608Z,9.57
2018-03-28T18:45:20.939Z,7.27
2018-03-28T18:47:49.268Z,12.13
2018-03-28T18:50:17.610Z,8.30
2018-03-28T18:52:45.913Z,8.17
2018-03-28T18:55:14.653Z,12.33
2018-03-28T18:57:44.478Z,8.80
2018-03-28T19:00:13.372Z,10.80
2018-03-28T19:02:44.195Z,17.73
2018-03-28T19:05:14.838Z,27.60
2018-03-28T19:07:44.430Z,31.67
2018-03-28T19:10:13.324Z,49.03
2018-03-28T19:12:41.906Z,51.90
2018-03-28T19:15:10.809Z,64.57
2018-03-28T19:17:40.303Z,58.33
2018-03-28T19:20:10.832Z,55.10
2018-03-28T19:22:39.732Z,58.67
2018-03-28T19:25:09.340Z,55.90
2018-03-28T19:27:39.134Z,62.17
2018-03-28T19:30:08.025Z,54.07
2018-03-28T19:32:37.625Z,61.50
2018-03-28T19:35:06.531Z,57.20
2018-03-28T19:37:35.314Z,65.73
2018-03-28T19:40:05.132Z,62.67
2018-03-28T19:42:34.127Z,56.53
2018-03-28T19:45:03.019Z,57.20
2018-03-28T19:47:33.731Z,64.53
2018-03-28T19:50:02.636Z,66.67
2018-03-28T19:52:31.951Z,56.30
2018-03-28T19:55:01.333Z,58.13
2018-03-28T19:57:30.226Z,66.13
2018-03-28T19:59:59.938Z,59.77
2018-03-28T20:02:28.727Z,54.87
2018-03-28T20:04:57.513Z,55.70
2018-03-28T20:07:27.847Z,58.33
2018-03-28T20:09:57.447Z,61.63
2018-03-28T20:12:27.107Z,59.70
2018-03-28T20:14:56.555Z,61.67
2018-03-28T20:17:26.159Z,59.70
2018-03-28T20:19:55.669Z,64.80
2018-03-28T20:22:25.473Z,62.23
2018-03-28T20:24:54.361Z,57.33
2018-03-28T20:27:22.954Z,65.70
2018-03-28T20:29:52.664Z,65.13
2018-03-28T20:32:21.444Z,68.80
2018-03-28T20:34:51.781Z,66.23
2018-03-28T20:37:21.994Z,61.50
2018-03-28T20:39:50.875Z,64.53
2018-03-28T20:42:20.601Z,67.20
2018-03-28T20:44:49.389Z,66.50
2018-03-28T20:47:19.000Z,69.43
2018-03-28T20:49:47.811Z,68.63
2018-03-28T20:52:17.378Z,58.67
2018-03-28T20:54:46.065Z,73.57
2018-03-28T20:57:14.749Z,64.77
2018-03-28T20:59:45.173Z,61.70
2018-03-28T21:02:14.211Z,64.40
2018-03-28T21:04:42.283Z,63.63
2018-03-28T21:07:10.265Z,67.27
2018-03-28T21:09:38.271Z,64.37
2018-03-28T21:12:07.001Z,68.17
2018-03-28T21:14:35.011Z,59.90
2018-03-28T21:17:03.038Z,68.10
2018-03-28T21:19:31.056Z,55.93
2018-03-28T21:21:59.790Z,66.83
2018-03-28T21:24:27.804Z,66.60
2018-03-28T21:26:55.763Z,66.60
2018-03-28T21:29:23.724Z,63.47
2018-03-28T21:31:51.698Z,63.33
2018-03-28T21:34:19.690Z,57.80
2018-03-28T21:36:48.403Z,67.90
2018-03-28T21:39:16.402Z,64.83
2018-03-28T21:41:46.152Z,68.07
2018-03-28T21:44:15.873Z,63.87
2018-03-28T21:46:44.371Z,70.80
2018-03-28T21:49:12.340Z,69.93
2018-03-28T21:51:41.809Z,62.53
2018-03-28T21:54:11.629Z,62.87
2018-03-28T21:56:39.752Z,80.20
2018-03-28T21:59:07.720Z,76.97
2018-03-28T22:01:35.682Z,73.10
2018-03-28T22:04:03.707Z,60.47
2018-03-28T22:06:32.506Z,68.97
2018-03-28T22:09:01.344Z,68.07
2018-03-28T22:11:29.304Z,77.40
2018-03-28T22:13:57.289Z,70.10
2018-03-28T22:16:25.987Z,70.27
2018-03-28T22:18:55.040Z,66.97
2018-03-28T22:21:22.994Z,63.63
2018-03-28T22:23:51.101Z,71.33
2018-03-28T22:26:19.119Z,72.40
2018-03-28T22:28:47.945Z,68.43
2018-03-28T22:31:15.910Z,68.70
2018-03-28T22:33:43.885Z,63.03
2018-03-28T22:36:11.888Z,65.30
2018-03-28T22:38:39.946Z,77.67
2018-03-28T22:41:07.918Z,67.73
2018-03-28T22:43:35.830Z,68.00
2018-03-28T22:46:04.573Z,63.40
2018-03-28T22:48:32.496Z,60.97
2018-03-28T22:51:00.466Z,83.87
2018-03-28T22:53:28.422Z,63.67
2018-03-28T22:55:57.118Z,71.17
2018-03-28T22:58:25.195Z,60.77
2018-03-28T23:00:53.173Z,65.30
2018-03-28T23:03:21.198Z,68.90
2018-03-28T23:05:49.203Z,65.70
2018-03-28T23:08:17.232Z,64.30
2018-03-28T23:10:45.235Z,64.70
2018-03-28T23:13:13.174Z,69.57
2018-03-28T23:15:41.459Z,53.30
2018-03-28T23:18:10.246Z,46.37
2018-03-28T23:20:38.946Z,21.03
2018-03-28T23:23:07.701Z,29.13
2018-03-28T23:25:35.642Z,14.57
2018-03-28T23:28:03.712Z,11.20
2018-03-28T23:30:31.731Z,8.47
2018-03-28T23:33:00.441Z,13.80
2018-03-28T23:35:28.397Z,11.53
2018-03-28T23:37:57.114Z,9.17
2018-03-28T23:40:25.034Z,11.20
2018-03-28T23:42:53.794Z,10.20
2018-03-28T23:45:21.756Z,8.90
2018-03-28T23:47:49.691Z,13.70
2018-03-28T23:50:17.658Z,8.20
2018-03-28T23:52:45.590Z,9.53
2018-03-28T23:55:13.505Z,13.20
2018-03-28T23:57:41.416Z,8.37
